createdAt,value
2023-02-18T00:00:01.881Z,98043.66
2023-02-18T00:02:32.299Z,98052.69
2023-02-18T00:05:05.435Z,98043.78
2023-02-18T00:07:38.227Z,98046.88
2023-02-18T00:10:12.047Z,98048.09
2023-02-18T00:12:42.982Z,98044.56
2023-02-18T00:15:13.864Z,98053.63
2023-02-18T00:17:44.248Z,98057.47
2023-02-18T00:20:17.433Z,98064.38
2023-02-18T00:22:47.711Z,98065.94
2023-02-18T00:25:18.213Z,98060.41
2023-02-18T00:27:48.615Z,98070.41
2023-02-18T00:30:19.392Z,98063.78
2023-02-18T00:32:49.854Z,98062.56
2023-02-18T00:35:22.795Z,98053.94
2023-02-18T00:37:55.604Z,98049.31
2023-02-18T00:40:25.967Z,98054.84
2023-02-18T00:42:56.345Z,98048.28
2023-02-18T00:45:26.816Z,98054.84
2023-02-18T00:47:57.197Z,98062.38
2023-02-18T00:50:30.333Z,98063.16
2023-02-18T00:53:01.275Z,98060.41
2023-02-18T00:55:31.606Z,98069.63
2023-02-18T00:58:02.077Z,98059.94
2023-02-18T01:00:32.463Z,98059.78
2023-02-18T01:03:03.091Z,98066.56
2023-02-18T01:05:36.495Z,98071.47
2023-02-18T01:08:12.160Z,98068.72
2023-02-18T01:10:47.746Z,98058.25
2023-02-18T01:13:19.251Z,98062.69
2023-02-18T01:15:49.732Z,98068.09
2023-02-18T01:18:20.761Z,98066.69
2023-02-18T01:20:53.509Z,98068.56
2023-02-18T01:23:23.850Z,98069.00
2023-02-18T01:25:54.627Z,98067.00
2023-02-18T01:28:25.915Z,98061.78
2023-02-18T01:30:57.099Z,98059.94
2023-02-18T01:33:29.148Z,98061.16
2023-02-18T01:36:02.187Z,98051.94
2023-02-18T01:38:32.619Z,98055.94
2023-02-18T01:41:03.051Z,98059.16
2023-02-18T01:43:34.566Z,98059.16
2023-02-18T01:46:19.356Z,98053.63
2023-02-18T01:48:55.895Z,98049.03
2023-02-18T01:51:33.249Z,98041.03
2023-02-18T01:54:09.773Z,98047.63
2023-02-18T01:56:45.921Z,98047.16
2023-02-18T01:59:23.060Z,98046.69
2023-02-18T02:01:53.577Z,98045.47
2023-02-18T02:04:24.412Z,98025.97
2023-02-18T02:06:57.502Z,98040.25
2023-02-18T02:09:30.462Z,98043.78
2023-02-18T02:12:44.735Z,98051.78
2023-02-18T02:15:31.203Z,98051.63
2023-02-18T02:18:30.559Z,98046.25
2023-02-18T02:21:34.288Z,98048.09
2023-02-18T02:24:48.369Z,98064.88
2023-02-18T02:27:26.566Z,98061.03
2023-02-18T02:30:37.955Z,98058.56
2023-02-18T02:33:23.284Z,98046.44
2023-02-18T02:36:03.282Z,98049.63
2023-02-18T02:38:39.190Z,98051.50
2023-02-18T02:41:25.066Z,98036.72
2023-02-18T02:44:10.218Z,98052.88
2023-02-18T02:46:48.061Z,98051.94
2023-02-18T02:49:35.645Z,98059.31
2023-02-18T02:52:15.263Z,98041.34
2023-02-18T02:54:45.700Z,98060.56
2023-02-18T02:57:49.315Z,98055.28
2023-02-18T03:00:36.048Z,98042.81
2023-02-18T03:03:35.028Z,98049.28
2023-02-18T03:06:59.121Z,98053.53
2023-02-18T03:09:44.947Z,98056.59
2023-02-18T03:12:26.967Z,98052.16
2023-02-18T03:15:08.862Z,98061.50
2023-02-18T03:17:49.006Z,98053.22
2023-02-18T03:20:27.094Z,98053.84
2023-02-18T03:22:59.644Z,98052.94
2023-02-18T03:25:35.238Z,98056.94
2023-02-18T03:28:12.601Z,98056.19
2023-02-18T03:30:48.054Z,98060.94
2023-02-18T03:33:26.835Z,98071.88
2023-02-18T03:35:59.719Z,98061.25
2023-02-18T03:38:37.701Z,98058.50
2023-02-18T03:41:11.107Z,98053.56
2023-02-18T03:43:43.791Z,98053.94
2023-02-18T03:46:14.192Z,98046.41
2023-02-18T03:48:44.752Z,98048.03
2023-02-18T03:51:15.267Z,98051.16
2023-02-18T03:53:46.336Z,98054.69
2023-02-18T03:56:19.914Z,98045.03
2023-02-18T03:58:50.278Z,98044.84
2023-02-18T04:01:20.728Z,98046.56
2023-02-18T04:03:51.164Z,98047.00
2023-02-18T04:06:21.531Z,98049.31
2023-02-18T04:08:52.205Z,98055.78
2023-02-18T04:11:25.294Z,98051.94
2023-02-18T04:13:55.578Z,98049.78
2023-02-18T04:16:25.935Z,98054.28
2023-02-18T04:18:56.320Z,98058.69
2023-02-18T04:21:26.734Z,98037.50
2023-02-18T04:23:57.158Z,98048.25
2023-02-18T04:26:30.721Z,98042.72
2023-02-18T04:29:01.203Z,98045.50
2023-02-18T04:31:31.677Z,98044.44
2023-02-18T04:34:02.234Z,98031.50
2023-02-18T04:36:32.602Z,98040.44
2023-02-18T04:39:02.939Z,98043.91
2023-02-18T04:41:35.887Z,98023.94
2023-02-18T04:44:06.290Z,98023.63
2023-02-18T04:46:36.850Z,98012.09
2023-02-18T04:49:07.225Z,98017.94
2023-02-18T04:51:37.787Z,98039.44
2023-02-18T04:54:08.820Z,98038.97
2023-02-18T04:56:41.891Z,98040.22
2023-02-18T04:59:12.242Z,98041.25
2023-02-18T05:01:42.676Z,98031.91
2023-02-18T05:04:13.100Z,98044.97
2023-02-18T05:06:43.459Z,98038.38
2023-02-18T05:09:14.072Z,98037.88
2023-02-18T05:11:47.597Z,98036.38
2023-02-18T05:14:18.236Z,98022.84
2023-02-18T05:16:48.599Z,98020.84
2023-02-18T05:19:20.133Z,98005.97
2023-02-18T05:21:50.432Z,98013.16
2023-02-18T05:24:20.841Z,98003.81
2023-02-18T05:26:54.010Z,97999.66
2023-02-18T05:29:24.394Z,97996.75
2023-02-18T05:31:54.983Z,97985.69
2023-02-18T05:34:25.404Z,97982.91
2023-02-18T05:36:55.820Z,97989.41
2023-02-18T05:39:26.187Z,97984.34
2023-02-18T05:41:59.079Z,97973.88
2023-02-18T05:44:35.473Z,97983.44
2023-02-18T05:47:11.015Z,97963.00
2023-02-18T05:49:43.442Z,97963.47
2023-02-18T05:52:14.388Z,97960.38
2023-02-18T05:54:44.804Z,97947.00
2023-02-18T05:57:18.500Z,97948.25
2023-02-18T05:59:48.909Z,97947.28
2023-02-18T06:02:19.353Z,97950.34
2023-02-18T06:04:49.757Z,97944.88
2023-02-18T06:07:20.781Z,97943.75
2023-02-18T06:09:51.534Z,97941.75
2023-02-18T06:12:24.512Z,97938.69
2023-02-18T06:14:54.884Z,97930.09
2023-02-18T06:17:25.504Z,97926.13
2023-02-18T06:19:55.989Z,97917.38
2023-02-18T06:22:26.385Z,97920.28
2023-02-18T06:24:56.803Z,97919.66
2023-02-18T06:27:29.822Z,97932.22
2023-02-18T06:30:00.202Z,97923.03
2023-02-18T06:32:30.671Z,97919.50
2023-02-18T06:35:01.040Z,97915.97
2023-02-18T06:37:31.446Z,97911.06
2023-02-18T06:40:01.816Z,97917.19
2023-02-18T06:42:35.133Z,97908.13
2023-02-18T06:45:06.775Z,97912.44
2023-02-18T06:47:37.624Z,97920.88
2023-02-18T06:50:10.572Z,97922.41
2023-02-18T06:52:40.908Z,97920.00
2023-02-18T06:55:12.246Z,97907.03
2023-02-18T06:57:45.061Z,97907.03
2023-02-18T07:00:16.731Z,97903.06
2023-02-18T07:02:47.107Z,97900.91
2023-02-18T07:05:17.941Z,97900.00
2023-02-18T07:07:48.338Z,97894.16
2023-02-18T07:10:18.850Z,97894.16
2023-02-18T07:12:52.032Z,97883.72
2023-02-18T07:15:24.494Z,97881.72
2023-02-18T07:17:55.222Z,97884.31
2023-02-18T07:20:26.461Z,97875.09
2023-02-18T07:22:57.475Z,97870.91
2023-02-18T07:25:27.740Z,97870.75
2023-02-18T07:28:00.632Z,97867.66
2023-02-18T07:30:30.976Z,97863.03
2023-02-18T07:33:03.714Z,97859.94
2023-02-18T07:35:34.361Z,97855.63
2023-02-18T07:38:05.373Z,97850.84
2023-02-18T07:40:35.398Z,97845.25
2023-02-18T07:43:08.335Z,97853.22
2023-02-18T07:45:41.111Z,97848.97
2023-02-18T07:48:11.512Z,97845.09
2023-02-18T07:50:42.970Z,97838.38
2023-02-18T07:53:15.562Z,97843.19
2023-02-18T07:55:55.095Z,97837.09
2023-02-18T07:58:31.818Z,97837.00
2023-02-18T08:01:02.426Z,97837.00
2023-02-18T08:03:35.386Z,97834.34
2023-02-18T08:06:08.460Z,97830.72
2023-02-18T08:08:39.098Z,97832.81
2023-02-18T08:11:18.936Z,97827.00
2023-02-18T08:13:52.648Z,97819.50
2023-02-18T08:16:25.228Z,97829.66
2023-02-18T08:18:56.374Z,97826.41
2023-02-18T08:21:29.003Z,97817.59
2023-02-18T08:24:01.492Z,97826.16
2023-02-18T08:26:32.420Z,97825.00
2023-02-18T08:29:05.708Z,97821.75
2023-02-18T08:31:36.476Z,97810.66
2023-02-18T08:34:07.275Z,97811.56
2023-02-18T08:36:39.055Z,97810.81
2023-02-18T08:39:09.408Z,97817.22
2023-02-18T08:41:39.729Z,97807.47
2023-02-18T08:44:12.685Z,97800.13
2023-02-18T08:46:43.065Z,97790.28
2023-02-18T08:49:13.478Z,97802.31
2023-02-18T08:51:43.826Z,97784.31
2023-02-18T08:54:14.235Z,97786.81
2023-02-18T08:56:44.781Z,97801.72
2023-02-18T08:59:17.765Z,97794.63
2023-02-18T09:01:48.163Z,97801.44
2023-02-18T09:04:18.704Z,97786.31
2023-02-18T09:06:50.131Z,97774.78
2023-02-18T09:09:21.217Z,97778.75
2023-02-18T09:11:51.554Z,97766.06
2023-02-18T09:14:24.526Z,97770.06
2023-02-18T09:16:55.012Z,97772.03
2023-02-18T09:19:25.411Z,97779.31
2023-02-18T09:21:59.784Z,97760.69
2023-02-18T09:24:31.098Z,97774.03
2023-02-18T09:27:01.517Z,97769.88
2023-02-18T09:29:35.870Z,97767.09
2023-02-18T09:32:07.285Z,97761.06
2023-02-18T09:34:37.961Z,97741.38
2023-02-18T09:37:08.923Z,97741.69
2023-02-18T09:39:39.780Z,97749.59
2023-02-18T09:42:16.596Z,97735.16
2023-02-18T09:44:54.954Z,97730.66
2023-02-18T09:47:34.840Z,97727.50
2023-02-18T09:50:12.168Z,97719.19
2023-02-18T09:52:42.636Z,97728.56
2023-02-18T09:55:23.768Z,97722.16
2023-02-18T09:57:55.834Z,97713.94
2023-02-18T10:00:35.760Z,97710.34
2023-02-18T10:03:14.774Z,97708.44
2023-02-18T10:05:56.342Z,97705.09
2023-02-18T10:08:30.716Z,97710.44
2023-02-18T10:11:01.080Z,97699.84
2023-02-18T10:13:34.535Z,97704.44
2023-02-18T10:16:09.629Z,97693.25
2023-02-18T10:18:49.166Z,97695.25
2023-02-18T10:21:23.470Z,97689.03
2023-02-18T10:24:02.851Z,97682.13
2023-02-18T10:26:37.501Z,97681.44
2023-02-18T10:29:21.439Z,97678.59
2023-02-18T10:32:00.619Z,97677.50
2023-02-18T10:34:47.257Z,97675.50
2023-02-18T10:37:40.224Z,97673.88
2023-02-18T10:40:21.631Z,97651.13
2023-02-18T10:43:08.276Z,97673.53
2023-02-18T10:45:50.644Z,97664.31
2023-02-18T10:48:54.540Z,97637.31
2023-02-18T10:51:31.489Z,97646.13
2023-02-18T10:54:02.066Z,97661.31
2023-02-18T10:56:43.725Z,97639.63
2023-02-18T10:59:17.445Z,97644.03
2023-02-18T11:01:48.578Z,97651.53
2023-02-18T11:04:24.414Z,97634.81
2023-02-18T11:06:55.998Z,97634.53
2023-02-18T11:09:46.782Z,97618.47
2023-02-18T11:12:22.213Z,97616.00
2023-02-18T11:15:09.424Z,97630.56
2023-02-18T11:17:40.323Z,97646.97
2023-02-18T11:20:32.603Z,97631.16
2023-02-18T11:23:20.735Z,97622.84
2023-02-18T11:26:04.193Z,97624.00
2023-02-18T11:28:46.344Z,97623.63
2023-02-18T11:31:25.430Z,97620.78
2023-02-18T11:33:58.754Z,97620.25
2023-02-18T11:36:35.305Z,97621.97
2023-02-18T11:39:11.920Z,97614.88
2023-02-18T11:41:45.297Z,97630.69
2023-02-18T11:44:25.740Z,97618.19
2023-02-18T11:47:05.916Z,97630.72
2023-02-18T11:49:38.643Z,97619.72
2023-02-18T11:52:21.418Z,97627.06
2023-02-18T11:55:05.527Z,97613.28
2023-02-18T11:57:40.275Z,97618.88
2023-02-18T12:00:26.529Z,97611.06
2023-02-18T12:03:00.068Z,97625.09
2023-02-18T12:05:31.677Z,97610.66
2023-02-18T12:08:10.775Z,97602.06
2023-02-18T12:10:46.148Z,97592.03
2023-02-18T12:13:28.859Z,97603.19
2023-02-18T12:16:13.626Z,97593.19
2023-02-18T12:18:59.441Z,97594.50
2023-02-18T12:21:44.714Z,97587.94
2023-02-18T12:24:33.907Z,97603.19
2023-02-18T12:27:16.078Z,97582.47
2023-02-18T12:30:17.398Z,97603.31
2023-02-18T12:32:53.504Z,97569.22
2023-02-18T12:35:47.732Z,97596.63
2023-02-18T12:39:10.787Z,97601.03
2023-02-18T12:42:13.935Z,97607.25
2023-02-18T12:44:52.029Z,97599.66
2023-02-18T12:47:57.192Z,97598.94
2023-02-18T12:50:58.792Z,97617.06
2023-02-18T12:53:46.109Z,97612.31
2023-02-18T12:56:44.196Z,97610.09
2023-02-18T12:59:43.096Z,97606.84
2023-02-18T13:02:33.997Z,97602.56
2023-02-18T13:05:15.134Z,97580.38
2023-02-18T13:08:05.852Z,97585.72
2023-02-18T13:11:07.931Z,97571.59
2023-02-18T13:13:44.236Z,97572.47
2023-02-18T13:16:20.203Z,97568.53
2023-02-18T13:18:59.434Z,97563.09
2023-02-18T13:21:30.889Z,97572.53
2023-02-18T13:24:05.685Z,97553.81
2023-02-18T13:26:38.330Z,97566.13
2023-02-18T13:29:25.685Z,97570.59
2023-02-18T13:32:11.612Z,97572.69
2023-02-18T13:34:51.552Z,97554.09
2023-02-18T13:37:32.229Z,97572.16
2023-02-18T13:40:04.169Z,97571.09
2023-02-18T13:42:40.713Z,97568.53
2023-02-18T13:45:30.542Z,97579.13
2023-02-18T13:48:04.430Z,97559.56
2023-02-18T13:50:45.349Z,97555.25
2023-02-18T13:53:26.484Z,97567.00
2023-02-18T13:56:06.269Z,97559.38
2023-02-18T13:58:44.485Z,97569.31
2023-02-18T14:01:27.380Z,97571.88
2023-02-18T14:04:05.104Z,97567.59
2023-02-18T14:06:39.141Z,97561.28
2023-02-18T14:09:43.921Z,97563.00
2023-02-18T14:12:29.476Z,97568.06
2023-02-18T14:15:02.073Z,97580.94
2023-02-18T14:17:45.463Z,97570.63
2023-02-18T14:20:48.227Z,97601.19
2023-02-18T14:23:44.494Z,97589.63
2023-02-18T14:26:26.755Z,97595.94
2023-02-18T14:29:00.583Z,97587.84
2023-02-18T14:31:39.672Z,97591.94
2023-02-18T14:34:53.372Z,97578.09
2023-02-18T14:38:12.589Z,97591.84
2023-02-18T14:41:23.516Z,97568.63
2023-02-18T14:44:26.759Z,97580.56
2023-02-18T14:47:19.592Z,97584.88
2023-02-18T14:49:53.130Z,97582.31
2023-02-18T14:52:33.534Z,97585.53
2023-02-18T14:55:10.853Z,97601.22
2023-02-18T14:57:48.562Z,97614.03
2023-02-18T15:00:21.971Z,97604.94
2023-02-18T15:02:57.463Z,97607.13
2023-02-18T15:05:30.692Z,97607.13
2023-02-18T15:08:03.968Z,97612.19
2023-02-18T15:10:43.698Z,97617.47
2023-02-18T15:13:21.083Z,97604.84
2023-02-18T15:15:54.971Z,97601.19
2023-02-18T15:18:34.439Z,97602.81
2023-02-18T15:21:06.673Z,97605.13
2023-02-18T15:23:41.540Z,97610.78
2023-02-18T15:26:19.275Z,97611.16
2023-02-18T15:29:02.941Z,97619.63
2023-02-18T15:31:42.127Z,97631.28
2023-02-18T15:34:36.191Z,97628.72
2023-02-18T15:37:09.277Z,97631.59
2023-02-18T15:39:41.314Z,97626.63
2023-02-18T15:42:25.906Z,97636.38
2023-02-18T15:45:05.988Z,97630.66
2023-02-18T15:47:36.985Z,97631.25
2023-02-18T15:50:08.497Z,97627.19
2023-02-18T15:52:41.893Z,97635.44
2023-02-18T15:55:21.273Z,97641.44
2023-02-18T15:57:57.092Z,97639.53
2023-02-18T16:00:32.606Z,97641.72
2023-02-18T16:03:15.611Z,97625.00
2023-02-18T16:05:47.405Z,97644.59
2023-02-18T16:08:28.194Z,97642.59
2023-02-18T16:11:03.531Z,97651.28
2023-02-18T16:13:40.680Z,97660.53
2023-02-18T16:16:25.777Z,97663.22
2023-02-18T16:18:56.648Z,97682.72
2023-02-18T16:21:34.673Z,97674.78
2023-02-18T16:24:27.528Z,97665.22
2023-02-18T16:27:04.630Z,97671.22
2023-02-18T16:29:45.498Z,97683.38
2023-02-18T16:32:16.086Z,97677.63
2023-02-18T16:34:49.065Z,97674.75
2023-02-18T16:37:31.958Z,97678.88
2023-02-18T16:40:05.337Z,97688.53
2023-02-18T16:42:36.304Z,97701.69
2023-02-18T16:45:12.260Z,97695.03
2023-02-18T16:47:43.156Z,97689.19
2023-02-18T16:50:21.037Z,97700.47
2023-02-18T16:52:52.589Z,97707.06
2023-02-18T16:55:27.422Z,97701.50
2023-02-18T16:58:00.535Z,97712.56
2023-02-18T17:00:34.217Z,97710.00
2023-02-18T17:03:05.375Z,97720.53
2023-02-18T17:05:40.367Z,97727.88
2023-02-18T17:08:21.518Z,97719.81
2023-02-18T17:10:53.032Z,97726.13
2023-02-18T17:13:25.274Z,97731.75
2023-02-18T17:16:00.875Z,97732.56
2023-02-18T17:18:31.689Z,97734.81
2023-02-18T17:21:03.648Z,97728.50
2023-02-18T17:23:34.364Z,97743.13
2023-02-18T17:26:05.145Z,97743.34
2023-02-18T17:28:35.950Z,97746.47
2023-02-18T17:31:12.216Z,97738.50
2023-02-18T17:33:43.304Z,97743.69
2023-02-18T17:36:14.420Z,97745.50
2023-02-18T17:38:45.079Z,97752.88
2023-02-18T17:41:16.918Z,97764.31
2023-02-18T17:43:48.045Z,97759.31
2023-02-18T17:46:22.641Z,97749.00
2023-02-18T17:48:53.323Z,97752.25
2023-02-18T17:51:29.797Z,97769.03
2023-02-18T17:54:00.586Z,97778.69
2023-02-18T17:56:31.423Z,97788.34
2023-02-18T17:59:02.153Z,97775.28
2023-02-18T18:01:38.967Z,97789.53
2023-02-18T18:04:17.648Z,97793.84
2023-02-18T18:06:50.133Z,97796.16
2023-02-18T18:09:31.645Z,97793.00
2023-02-18T18:12:33.417Z,97801.41
2023-02-18T18:15:04.971Z,97800.13
2023-02-18T18:17:38.796Z,97801.50
2023-02-18T18:20:11.829Z,97799.28
2023-02-18T18:22:42.893Z,97815.97
2023-02-18T18:25:20.922Z,97806.31
2023-02-18T18:27:53.169Z,97811.28
2023-02-18T18:30:26.833Z,97820.50
2023-02-18T18:33:01.028Z,97808.97
2023-02-18T18:35:34.967Z,97805.31
2023-02-18T18:38:05.876Z,97804.59
2023-02-18T18:40:38.138Z,97800.00
2023-02-18T18:43:09.110Z,97811.38
2023-02-18T18:45:40.737Z,97805.53
2023-02-18T18:48:14.261Z,97809.38
2023-02-18T18:50:45.749Z,97793.72
2023-02-18T18:53:22.750Z,97797.75
2023-02-18T18:55:55.631Z,97795.91
2023-02-18T18:58:27.373Z,97798.22
2023-02-18T19:01:01.163Z,97787.44
2023-02-18T19:03:38.581Z,97801.13
2023-02-18T19:06:09.479Z,97791.16
2023-02-18T19:08:40.356Z,97797.44
2023-02-18T19:11:11.545Z,97801.75
2023-02-18T19:13:42.306Z,97802.97
2023-02-18T19:16:24.588Z,97804.19
2023-02-18T19:18:58.286Z,97812.03
2023-02-18T19:21:29.236Z,97814.94
2023-02-18T19:24:00.146Z,97809.84
2023-02-18T19:26:30.856Z,97824.44
2023-02-18T19:29:01.897Z,97818.94
2023-02-18T19:31:32.571Z,97833.06
2023-02-18T19:34:07.634Z,97826.13
2023-02-18T19:36:38.118Z,97822.59
2023-02-18T19:39:08.872Z,97840.72
2023-02-18T19:41:39.746Z,97823.50
2023-02-18T19:44:10.623Z,97825.94
2023-02-18T19:46:42.284Z,97831.78
2023-02-18T19:49:15.587Z,97828.06
2023-02-18T19:51:46.124Z,97832.41
2023-02-18T19:54:16.646Z,97823.50
2023-02-18T19:56:47.229Z,97826.56
2023-02-18T19:59:17.773Z,97836.56
2023-02-18T20:01:48.349Z,97836.81
2023-02-18T20:04:21.536Z,97840.94
2023-02-18T20:06:51.925Z,97829.09
2023-02-18T20:09:22.475Z,97836.63
2023-02-18T20:11:53.029Z,97841.25
2023-02-18T20:14:27.181Z,97838.69
2023-02-18T20:16:58.097Z,97838.84
2023-02-18T20:19:32.615Z,97837.75
2023-02-18T20:22:03.544Z,97843.06
2023-02-18T20:24:34.889Z,97828.03
2023-02-18T20:27:05.813Z,97831.47
2023-02-18T20:29:36.845Z,97836.41
2023-02-18T20:32:08.623Z,97835.03
2023-02-18T20:34:41.668Z,97841.91
2023-02-18T20:37:12.211Z,97835.66
2023-02-18T20:39:42.824Z,97838.25
2023-02-18T20:42:16.671Z,97835.19
2023-02-18T20:44:47.559Z,97841.00
2023-02-18T20:47:18.112Z,97851.78
2023-02-18T20:49:51.180Z,97843.63
2023-02-18T20:52:21.563Z,97838.25
2023-02-18T20:54:52.000Z,97849.94
2023-02-18T20:57:22.452Z,97846.22
2023-02-18T20:59:52.793Z,97846.22
2023-02-18T21:02:23.273Z,97850.88
2023-02-18T21:04:56.229Z,97840.72
2023-02-18T21:07:26.568Z,97841.13
2023-02-18T21:09:56.898Z,97841.31
2023-02-18T21:12:27.360Z,97837.84
2023-02-18T21:14:57.758Z,97839.56
2023-02-18T21:17:28.300Z,97847.56
2023-02-18T21:20:01.280Z,97838.81
2023-02-18T21:22:31.586Z,97835.47
2023-02-18T21:25:01.988Z,97841.75
2023-02-18T21:27:32.420Z,97837.13
2023-02-18T21:30:04.305Z,97839.72
2023-02-18T21:32:34.689Z,97835.28
2023-02-18T21:35:08.162Z,97828.97
2023-02-18T21:37:40.715Z,97826.34
2023-02-18T21:40:12.495Z,97830.97
2023-02-18T21:42:42.792Z,97830.19
2023-02-18T21:45:16.993Z,97833.16
2023-02-18T21:47:47.970Z,97833.78
2023-02-18T21:50:23.410Z,97822.75
2023-02-18T21:52:56.793Z,97832.41
2023-02-18T21:55:27.583Z,97824.41
2023-02-18T21:57:57.977Z,97823.38
2023-02-18T22:00:28.355Z,97817.53
2023-02-18T22:02:58.890Z,97827.50
2023-02-18T22:05:32.300Z,97811.84
2023-02-18T22:08:02.745Z,97813.38
2023-02-18T22:10:33.671Z,97814.91
2023-02-18T22:13:04.036Z,97815.53
2023-02-18T22:15:34.395Z,97824.13
2023-02-18T22:18:04.775Z,97819.22
2023-02-18T22:20:37.796Z,97811.88
2023-02-18T22:23:08.210Z,97808.19
2023-02-18T22:25:38.945Z,97810.97
2023-02-18T22:28:09.401Z,97798.97
2023-02-18T22:30:42.623Z,97802.22
2023-02-18T22:33:12.980Z,97791.91
2023-02-18T22:35:46.116Z,97793.63
2023-02-18T22:38:16.537Z,97787.19
2023-02-18T22:40:48.555Z,97785.31
2023-02-18T22:43:21.039Z,97787.66
2023-02-18T22:45:51.590Z,97790.09
2023-02-18T22:48:22.058Z,97786.13
2023-02-18T22:50:55.162Z,97774.31
2023-02-18T22:53:25.499Z,97790.09
2023-02-18T22:55:55.938Z,97797.31
2023-02-18T22:58:26.438Z,97809.59
2023-02-18T23:00:56.846Z,97811.31
2023-02-18T23:03:29.025Z,97803.94
2023-02-18T23:06:04.977Z,97812.97
2023-02-18T23:08:36.321Z,97811.75
2023-02-18T23:11:09.679Z,97811.59
2023-02-18T23:13:40.687Z,97808.84
2023-02-18T23:16:16.124Z,97805.13
2023-02-18T23:18:46.496Z,97813.72
2023-02-18T23:21:23.745Z,97810.19
2023-02-18T23:23:58.510Z,97806.66
2023-02-18T23:26:29.892Z,97807.56
2023-02-18T23:29:00.413Z,97812.47
2023-02-18T23:31:31.965Z,97811.09
2023-02-18T23:34:04.536Z,97820.59
2023-02-18T23:36:39.377Z,97797.28
2023-02-18T23:39:13.584Z,97815.06
2023-02-18T23:41:43.959Z,97805.09
2023-02-18T23:44:17.588Z,97803.88
2023-02-18T23:46:48.648Z,97798.50
2023-02-18T23:49:19.751Z,97803.88
2023-02-18T23:51:53.477Z,97794.50
2023-02-18T23:54:24.706Z,97798.94
2023-02-18T23:56:55.306Z,97797.41
2023-02-18T23:59:25.706Z,97788.66
